sensor_id;sensor_type;location;lat;lon;timestamp;temperature;humidity
14095;DHT22;18096;48.142;16.290;2024-03-02T00:00:19;6.80;99.90
14095;DHT22;18096;48.142;16.290;2024-03-02T00:02:47;6.70;99.90
14095;DHT22;18096;48.142;16.290;2024-03-02T00:05:19;6.70;99.90
14095;DHT22;18096;48.142;16.290;2024-03-02T00:07:55;6.70;99.90
14095;DHT22;18096;48.142;16.290;2024-03-02T00:10:25;6.60;99.90
14095;DHT22;18096;48.142;16.290;2024-03-02T00:12:58;6.60;99.90
14095;DHT22;18096;48.142;16.290;2024-03-02T00:15:47;6.50;99.90
14095;DHT22;18096;48.142;16.290;2024-03-02T00:18:39;6.50;99.90
14095;DHT22;18096;48.142;16.290;2024-03-02T00:21:06;6.50;99.90
14095;DHT22;18096;48.142;16.290;2024-03-02T00:23:34;6.50;99.90
14095;DHT22;18096;48.142;16.290;2024-03-02T00:26:00;6.40;99.90
14095;DHT22;18096;48.142;16.290;2024-03-02T00:31:07;6.40;99.90
14095;DHT22;18096;48.142;16.290;2024-03-02T00:33:40;6.40;99.90
14095;DHT22;18096;48.142;16.290;2024-03-02T00:36:07;8.10;99.90
14095;DHT22;18096;48.142;16.290;2024-03-02T00:38:34;6.40;99.90
14095;DHT22;18096;48.142;16.290;2024-03-02T00:41:07;6.40;99.90
14095;DHT22;18096;48.142;16.290;2024-03-02T00:43:41;6.40;99.90
14095;DHT22;18096;48.142;16.290;2024-03-02T00:46:07;6.40;99.90
14095;DHT22;18096;48.142;16.290;2024-03-02T00:48:33;6.20;99.90
14095;DHT22;18096;48.142;16.290;2024-03-02T00:51:03;6.30;99.90
14095;DHT22;18096;48.142;16.290;2024-03-02T00:53:30;6.30;99.90
14095;DHT22;18096;48.142;16.290;2024-03-02T00:55:56;6.30;99.90
14095;DHT22;18096;48.142;16.290;2024-03-02T00:58:22;6.20;99.90
14095;DHT22;18096;48.142;16.290;2024-03-02T01:00:48;6.30;99.90
14095;DHT22;18096;48.142;16.290;2024-03-02T01:03:13;6.20;99.90
14095;DHT22;18096;48.142;16.290;2024-03-02T01:05:43;6.20;99.90
14095;DHT22;18096;48.142;16.290;2024-03-02T01:08:09;6.40;99.90
14095;DHT22;18096;48.142;16.290;2024-03-02T01:10:35;6.20;99.90
14095;DHT22;18096;48.142;16.290;2024-03-02T01:13:01;6.10;99.90
14095;DHT22;18096;48.142;16.290;2024-03-02T01:15:26;6.20;99.90
14095;DHT22;18096;48.142;16.290;2024-03-02T01:17:52;6.20;99.90
14095;DHT22;18096;48.142;16.290;2024-03-02T01:20:18;6.20;99.90
14095;DHT22;18096;48.142;16.290;2024-03-02T01:22:43;6.20;99.90
14095;DHT22;18096;48.142;16.290;2024-03-02T01:25:09;6.20;99.90
14095;DHT22;18096;48.142;16.290;2024-03-02T01:27:35;6.20;99.90
14095;DHT22;18096;48.142;16.290;2024-03-02T01:30:01;6.20;99.90
14095;DHT22;18096;48.142;16.290;2024-03-02T01:32:26;6.20;99.90
14095;DHT22;18096;48.142;16.290;2024-03-02T01:34:52;6.20;99.90
14095;DHT22;18096;48.142;16.290;2024-03-02T01:37:17;6.10;99.90
14095;DHT22;18096;48.142;16.290;2024-03-02T01:39:43;6.10;99.90
14095;DHT22;18096;48.142;16.290;2024-03-02T01:42:09;6.10;99.90
14095;DHT22;18096;48.142;16.290;2024-03-02T01:44:36;6.00;99.90
14095;DHT22;18096;48.142;16.290;2024-03-02T01:47:01;6.30;99.90
14095;DHT22;18096;48.142;16.290;2024-03-02T01:49:27;6.00;99.90
14095;DHT22;18096;48.142;16.290;2024-03-02T01:51:53;5.90;99.90
14095;DHT22;18096;48.142;16.290;2024-03-02T01:54:18;5.90;99.90
14095;DHT22;18096;48.142;16.290;2024-03-02T01:59:11;5.90;99.90
14095;DHT22;18096;48.142;16.290;2024-03-02T02:04:04;5.90;99.90
14095;DHT22;18096;48.142;16.290;2024-03-02T02:06:32;5.90;99.90
14095;DHT22;18096;48.142;16.290;2024-03-02T02:08:57;6.00;99.90
14095;DHT22;18096;48.142;16.290;2024-03-02T02:11:23;5.80;99.90
14095;DHT22;18096;48.142;16.290;2024-03-02T02:13:49;5.90;99.90
14095;DHT22;18096;48.142;16.290;2024-03-02T02:16:15;5.90;99.90
14095;DHT22;18096;48.142;16.290;2024-03-02T02:18:41;5.80;99.90
14095;DHT22;18096;48.142;16.290;2024-03-02T02:21:06;5.80;99.90
14095;DHT22;18096;48.142;16.290;2024-03-02T02:23:32;6.70;99.90
14095;DHT22;18096;48.142;16.290;2024-03-02T02:25:57;5.90;99.90
14095;DHT22;18096;48.142;16.290;2024-03-02T02:28:23;5.90;99.90
14095;DHT22;18096;48.142;16.290;2024-03-02T02:30:49;5.90;99.90
14095;DHT22;18096;48.142;16.290;2024-03-02T02:33:14;5.90;99.90
14095;DHT22;18096;48.142;16.290;2024-03-02T02:35:40;6.00;99.90
14095;DHT22;18096;48.142;16.290;2024-03-02T02:38:06;6.00;99.90
14095;DHT22;18096;48.142;16.290;2024-03-02T02:40:31;7.40;99.90
14095;DHT22;18096;48.142;16.290;2024-03-02T02:42:57;6.00;99.90
14095;DHT22;18096;48.142;16.290;2024-03-02T02:45:24;6.00;99.90
14095;DHT22;18096;48.142;16.290;2024-03-02T02:47:50;6.00;99.90
14095;DHT22;18096;48.142;16.290;2024-03-02T02:50:16;6.10;99.90
14095;DHT22;18096;48.142;16.290;2024-03-02T02:52:42;6.10;99.90
14095;DHT22;18096;48.142;16.290;2024-03-02T02:55:12;6.20;99.90
14095;DHT22;18096;48.142;16.290;2024-03-02T02:57:41;6.30;99.90
14095;DHT22;18096;48.142;16.290;2024-03-02T03:00:10;6.40;99.90
14095;DHT22;18096;48.142;16.290;2024-03-02T03:02:39;6.30;99.90
14095;DHT22;18096;48.142;16.290;2024-03-02T03:05:07;6.30;99.90
14095;DHT22;18096;48.142;16.290;2024-03-02T03:07:33;6.40;99.90
14095;DHT22;18096;48.142;16.290;2024-03-02T03:10:00;6.30;99.90
14095;DHT22;18096;48.142;16.290;2024-03-02T03:12:26;6.30;99.90
14095;DHT22;18096;48.142;16.290;2024-03-02T03:14:52;6.30;99.90
14095;DHT22;18096;48.142;16.290;2024-03-02T03:17:17;6.20;99.90
14095;DHT22;18096;48.142;16.290;2024-03-02T03:19:43;6.20;99.90
14095;DHT22;18096;48.142;16.290;2024-03-02T03:22:09;6.20;99.90
14095;DHT22;18096;48.142;16.290;2024-03-02T03:24:35;6.10;99.90
14095;DHT22;18096;48.142;16.290;2024-03-02T03:27:00;6.10;99.90
14095;DHT22;18096;48.142;16.290;2024-03-02T03:29:26;6.10;99.90
14095;DHT22;18096;48.142;16.290;2024-03-02T03:31:52;6.10;99.90
14095;DHT22;18096;48.142;16.290;2024-03-02T03:34:17;6.00;99.90
14095;DHT22;18096;48.142;16.290;2024-03-02T03:36:43;6.00;99.90
14095;DHT22;18096;48.142;16.290;2024-03-02T03:39:09;6.10;99.90
14095;DHT22;18096;48.142;16.290;2024-03-02T03:41:34;6.00;99.90
14095;DHT22;18096;48.142;16.290;2024-03-02T03:44:00;5.90;99.90
14095;DHT22;18096;48.142;16.290;2024-03-02T03:46:25;6.00;99.90
14095;DHT22;18096;48.142;16.290;2024-03-02T03:48:51;5.90;99.90
14095;DHT22;18096;48.142;16.290;2024-03-02T03:53:43;5.90;99.90
14095;DHT22;18096;48.142;16.290;2024-03-02T03:58:34;5.90;99.90
14095;DHT22;18096;48.142;16.290;2024-03-02T04:01:00;5.30;99.90
14095;DHT22;18096;48.142;16.290;2024-03-02T04:03:25;5.90;99.90
14095;DHT22;18096;48.142;16.290;2024-03-02T04:05:51;5.90;99.90
14095;DHT22;18096;48.142;16.290;2024-03-02T04:08:16;5.90;99.90
14095;DHT22;18096;48.142;16.290;2024-03-02T04:10:42;6.30;99.90
14095;DHT22;18096;48.142;16.290;2024-03-02T04:13:08;5.80;99.90
14095;DHT22;18096;48.142;16.290;2024-03-02T04:15:33;5.80;99.90
14095;DHT22;18096;48.142;16.290;2024-03-02T04:17:59;5.80;99.90
14095;DHT22;18096;48.142;16.290;2024-03-02T04:20:24;6.00;99.90
14095;DHT22;18096;48.142;16.290;2024-03-02T04:22:50;5.80;99.90
14095;DHT22;18096;48.142;16.290;2024-03-02T04:25:16;5.80;99.90
14095;DHT22;18096;48.142;16.290;2024-03-02T04:27:42;5.80;99.90
14095;DHT22;18096;48.142;16.290;2024-03-02T04:30:07;5.80;99.90
14095;DHT22;18096;48.142;16.290;2024-03-02T04:32:33;5.80;99.90
14095;DHT22;18096;48.142;16.290;2024-03-02T04:34:59;5.80;99.90
14095;DHT22;18096;48.142;16.290;2024-03-02T04:37:25;5.70;99.90
14095;DHT22;18096;48.142;16.290;2024-03-02T04:39:50;5.70;99.90
14095;DHT22;18096;48.142;16.290;2024-03-02T04:42:16;6.10;99.90
14095;DHT22;18096;48.142;16.290;2024-03-02T04:44:41;5.60;99.90
14095;DHT22;18096;48.142;16.290;2024-03-02T04:47:07;5.70;99.90
14095;DHT22;18096;48.142;16.290;2024-03-02T04:49:33;5.70;99.90
14095;DHT22;18096;48.142;16.290;2024-03-02T04:51:58;5.70;99.90
14095;DHT22;18096;48.142;16.290;2024-03-02T04:54:24;5.70;99.90
14095;DHT22;18096;48.142;16.290;2024-03-02T04:56:50;5.60;99.90
14095;DHT22;18096;48.142;16.290;2024-03-02T04:59:16;5.60;99.90
14095;DHT22;18096;48.142;16.290;2024-03-02T05:01:42;5.60;99.90
14095;DHT22;18096;48.142;16.290;2024-03-02T05:04:08;6.60;99.90
14095;DHT22;18096;48.142;16.290;2024-03-02T05:09:03;5.60;99.90
14095;DHT22;18096;48.142;16.290;2024-03-02T05:11:28;5.60;99.90
14095;DHT22;18096;48.142;16.290;2024-03-02T05:14:11;5.60;99.90
14095;DHT22;18096;48.142;16.290;2024-03-02T05:16:37;5.60;99.90
14095;DHT22;18096;48.142;16.290;2024-03-02T05:19:07;5.60;99.90
14095;DHT22;18096;48.142;16.290;2024-03-02T05:21:33;5.60;99.90
14095;DHT22;18096;48.142;16.290;2024-03-02T05:23:59;5.80;99.90
14095;DHT22;18096;48.142;16.290;2024-03-02T05:26:25;5.60;99.90
14095;DHT22;18096;48.142;16.290;2024-03-02T05:28:50;6.00;99.90
14095;DHT22;18096;48.142;16.290;2024-03-02T05:31:16;5.50;99.90
14095;DHT22;18096;48.142;16.290;2024-03-02T05:33:42;5.50;99.90
14095;DHT22;18096;48.142;16.290;2024-03-02T05:36:08;5.70;99.90
14095;DHT22;18096;48.142;16.290;2024-03-02T05:38:36;5.50;99.90
14095;DHT22;18096;48.142;16.290;2024-03-02T05:41:02;5.50;99.90
14095;DHT22;18096;48.142;16.290;2024-03-02T05:43:28;5.50;99.90
14095;DHT22;18096;48.142;16.290;2024-03-02T05:45:54;5.50;99.90
14095;DHT22;18096;48.142;16.290;2024-03-02T05:48:20;5.50;99.90
14095;DHT22;18096;48.142;16.290;2024-03-02T05:50:45;5.40;99.90
14095;DHT22;18096;48.142;16.290;2024-03-02T05:53:11;5.40;99.90
14095;DHT22;18096;48.142;16.290;2024-03-02T05:55:37;5.30;99.90
14095;DHT22;18096;48.142;16.290;2024-03-02T05:58:02;5.20;99.90
14095;DHT22;18096;48.142;16.290;2024-03-02T06:00:31;5.20;99.90
14095;DHT22;18096;48.142;16.290;2024-03-02T06:02:57;5.20;99.90
14095;DHT22;18096;48.142;16.290;2024-03-02T06:05:22;5.10;99.90
14095;DHT22;18096;48.142;16.290;2024-03-02T06:07:48;5.10;99.90
14095;DHT22;18096;48.142;16.290;2024-03-02T06:10:14;6.30;99.90
14095;DHT22;18096;48.142;16.290;2024-03-02T06:12:40;5.20;99.90
14095;DHT22;18096;48.142;16.290;2024-03-02T06:15:06;5.20;99.90
14095;DHT22;18096;48.142;16.290;2024-03-02T06:17:32;5.20;99.90
14095;DHT22;18096;48.142;16.290;2024-03-02T06:19:58;5.50;99.90
14095;DHT22;18096;48.142;16.290;2024-03-02T06:22:23;5.30;99.90
14095;DHT22;18096;48.142;16.290;2024-03-02T06:24:50;7.70;99.90
14095;DHT22;18096;48.142;16.290;2024-03-02T06:27:16;5.30;99.90
14095;DHT22;18096;48.142;16.290;2024-03-02T06:29:42;5.30;99.90
14095;DHT22;18096;48.142;16.290;2024-03-02T06:32:07;5.20;99.90
14095;DHT22;18096;48.142;16.290;2024-03-02T06:34:33;5.30;99.90
14095;DHT22;18096;48.142;16.290;2024-03-02T06:36:59;5.40;99.90
14095;DHT22;18096;48.142;16.290;2024-03-02T06:39:24;5.40;99.90
14095;DHT22;18096;48.142;16.290;2024-03-02T06:41:51;5.40;99.90
14095;DHT22;18096;48.142;16.290;2024-03-02T06:44:17;5.40;99.90
14095;DHT22;18096;48.142;16.290;2024-03-02T06:46:42;5.40;99.90
14095;DHT22;18096;48.142;16.290;2024-03-02T06:49:08;5.90;99.90
14095;DHT22;18096;48.142;16.290;2024-03-02T06:51:36;5.50;99.90
14095;DHT22;18096;48.142;16.290;2024-03-02T06:54:01;5.50;99.90
14095;DHT22;18096;48.142;16.290;2024-03-02T06:56:27;5.60;99.90
14095;DHT22;18096;48.142;16.290;2024-03-02T06:58:53;6.60;99.90
14095;DHT22;18096;48.142;16.290;2024-03-02T07:01:18;4.80;99.90
14095;DHT22;18096;48.142;16.290;2024-03-02T07:03:45;5.60;99.90
14095;DHT22;18096;48.142;16.290;2024-03-02T07:06:11;5.60;99.90
14095;DHT22;18096;48.142;16.290;2024-03-02T07:08:37;5.60;99.90
14095;DHT22;18096;48.142;16.290;2024-03-02T07:11:02;5.60;99.90
14095;DHT22;18096;48.142;16.290;2024-03-02T07:13:28;5.60;99.90
14095;DHT22;18096;48.142;16.290;2024-03-02T07:15:54;5.60;99.90
14095;DHT22;18096;48.142;16.290;2024-03-02T07:18:31;5.70;99.90
14095;DHT22;18096;48.142;16.290;2024-03-02T07:20:57;5.70;99.90
14095;DHT22;18096;48.142;16.290;2024-03-02T07:23:24;5.60;99.90
14095;DHT22;18096;48.142;16.290;2024-03-02T07:25:53;5.70;99.90
14095;DHT22;18096;48.142;16.290;2024-03-02T07:28:24;5.70;99.90
14095;DHT22;18096;48.142;16.290;2024-03-02T07:31:03;5.70;99.90
14095;DHT22;18096;48.142;16.290;2024-03-02T07:33:30;5.80;99.90
14095;DHT22;18096;48.142;16.290;2024-03-02T07:35:56;5.80;99.90
14095;DHT22;18096;48.142;16.290;2024-03-02T07:38:23;5.80;99.90
14095;DHT22;18096;48.142;16.290;2024-03-02T07:40:49;5.80;99.90
14095;DHT22;18096;48.142;16.290;2024-03-02T07:43:19;5.90;99.90
14095;DHT22;18096;48.142;16.290;2024-03-02T07:45:45;7.00;99.90
14095;DHT22;18096;48.142;16.290;2024-03-02T07:48:11;5.90;99.90
14095;DHT22;18096;48.142;16.290;2024-03-02T07:50:36;5.90;99.90
14095;DHT22;18096;48.142;16.290;2024-03-02T07:53:03;5.90;99.90
14095;DHT22;18096;48.142;16.290;2024-03-02T07:55:29;5.80;99.90
14095;DHT22;18096;48.142;16.290;2024-03-02T07:57:58;5.90;99.90
14095;DHT22;18096;48.142;16.290;2024-03-02T08:00:25;5.80;99.90
14095;DHT22;18096;48.142;16.290;2024-03-02T08:02:51;5.90;99.90
14095;DHT22;18096;48.142;16.290;2024-03-02T08:05:17;5.90;99.90
14095;DHT22;18096;48.142;16.290;2024-03-02T08:07:45;6.00;99.90
14095;DHT22;18096;48.142;16.290;2024-03-02T08:10:11;6.00;99.90
14095;DHT22;18096;48.142;16.290;2024-03-02T08:12:36;6.10;99.90
14095;DHT22;18096;48.142;16.290;2024-03-02T08:15:02;6.20;99.90
14095;DHT22;18096;48.142;16.290;2024-03-02T08:17:28;6.30;99.90
14095;DHT22;18096;48.142;16.290;2024-03-02T08:19:54;6.50;99.90
14095;DHT22;18096;48.142;16.290;2024-03-02T08:22:20;6.60;99.90
14095;DHT22;18096;48.142;16.290;2024-03-02T08:24:45;6.70;99.90
14095;DHT22;18096;48.142;16.290;2024-03-02T08:27:11;6.80;99.90
14095;DHT22;18096;48.142;16.290;2024-03-02T08:29:37;6.90;99.90
14095;DHT22;18096;48.142;16.290;2024-03-02T08:32:04;7.10;99.90
14095;DHT22;18096;48.142;16.290;2024-03-02T08:34:30;7.10;99.90
14095;DHT22;18096;48.142;16.290;2024-03-02T08:36:55;7.20;99.90
14095;DHT22;18096;48.142;16.290;2024-03-02T08:39:21;7.30;99.90
14095;DHT22;18096;48.142;16.290;2024-03-02T08:41:47;7.40;99.90
14095;DHT22;18096;48.142;16.290;2024-03-02T08:44:14;7.50;99.90
14095;DHT22;18096;48.142;16.290;2024-03-02T08:46:40;7.70;99.90
14095;DHT22;18096;48.142;16.290;2024-03-02T08:49:06;7.70;99.90
14095;DHT22;18096;48.142;16.290;2024-03-02T08:51:32;7.70;99.90
14095;DHT22;18096;48.142;16.290;2024-03-02T08:53:58;7.70;99.90
14095;DHT22;18096;48.142;16.290;2024-03-02T08:56:25;7.70;99.90
14095;DHT22;18096;48.142;16.290;2024-03-02T08:58:51;7.70;99.90
14095;DHT22;18096;48.142;16.290;2024-03-02T09:01:18;7.80;99.90
14095;DHT22;18096;48.142;16.290;2024-03-02T09:03:43;7.70;99.90
14095;DHT22;18096;48.142;16.290;2024-03-02T09:06:12;7.70;99.90
14095;DHT22;18096;48.142;16.290;2024-03-02T09:08:39;7.70;99.90
14095;DHT22;18096;48.142;16.290;2024-03-02T09:11:06;7.70;99.90
14095;DHT22;18096;48.142;16.290;2024-03-02T09:13:32;7.70;99.90
14095;DHT22;18096;48.142;16.290;2024-03-02T09:15:58;7.80;99.90
14095;DHT22;18096;48.142;16.290;2024-03-02T09:18:24;7.90;99.90
14095;DHT22;18096;48.142;16.290;2024-03-02T09:20:49;8.00;99.90
14095;DHT22;18096;48.142;16.290;2024-03-02T09:23:15;8.00;99.90
14095;DHT22;18096;48.142;16.290;2024-03-02T09:25:41;8.10;99.90
14095;DHT22;18096;48.142;16.290;2024-03-02T09:28:06;8.10;99.90
14095;DHT22;18096;48.142;16.290;2024-03-02T09:30:33;8.20;99.90
14095;DHT22;18096;48.142;16.290;2024-03-02T09:32:58;8.20;99.90
14095;DHT22;18096;48.142;16.290;2024-03-02T09:35:24;8.20;99.90
14095;DHT22;18096;48.142;16.290;2024-03-02T09:37:50;8.30;99.90
14095;DHT22;18096;48.142;16.290;2024-03-02T09:40:16;8.30;99.90
14095;DHT22;18096;48.142;16.290;2024-03-02T09:42:42;8.40;99.90
14095;DHT22;18096;48.142;16.290;2024-03-02T09:45:09;8.40;99.90
14095;DHT22;18096;48.142;16.290;2024-03-02T09:47:35;8.50;99.90
14095;DHT22;18096;48.142;16.290;2024-03-02T09:50:01;8.60;99.90
14095;DHT22;18096;48.142;16.290;2024-03-02T09:52:27;8.60;99.90
14095;DHT22;18096;48.142;16.290;2024-03-02T09:54:53;8.70;99.90
14095;DHT22;18096;48.142;16.290;2024-03-02T09:57:18;8.70;99.90
14095;DHT22;18096;48.142;16.290;2024-03-02T09:59:44;8.80;99.90
14095;DHT22;18096;48.142;16.290;2024-03-02T10:02:10;8.90;99.90
14095;DHT22;18096;48.142;16.290;2024-03-02T10:04:36;8.90;99.90
14095;DHT22;18096;48.142;16.290;2024-03-02T10:07:15;9.00;99.90
14095;DHT22;18096;48.142;16.290;2024-03-02T10:09:42;9.10;99.90
14095;DHT22;18096;48.142;16.290;2024-03-02T10:12:09;9.10;99.90
14095;DHT22;18096;48.142;16.290;2024-03-02T10:14:35;9.10;99.90
14095;DHT22;18096;48.142;16.290;2024-03-02T10:17:10;9.10;99.90
14095;DHT22;18096;48.142;16.290;2024-03-02T10:19:37;9.20;99.90
14095;DHT22;18096;48.142;16.290;2024-03-02T10:22:06;9.10;99.90
14095;DHT22;18096;48.142;16.290;2024-03-02T10:24:36;9.10;99.90
14095;DHT22;18096;48.142;16.290;2024-03-02T10:29:40;9.10;99.90
14095;DHT22;18096;48.142;16.290;2024-03-02T10:32:09;9.10;99.90
14095;DHT22;18096;48.142;16.290;2024-03-02T10:34:37;8.80;99.90
14095;DHT22;18096;48.142;16.290;2024-03-02T10:37:03;9.20;99.90
14095;DHT22;18096;48.142;16.290;2024-03-02T10:39:29;9.30;99.90
14095;DHT22;18096;48.142;16.290;2024-03-02T10:41:57;9.30;99.90
14095;DHT22;18096;48.142;16.290;2024-03-02T10:44:23;9.30;99.90
14095;DHT22;18096;48.142;16.290;2024-03-02T10:46:51;9.40;99.90
14095;DHT22;18096;48.142;16.290;2024-03-02T10:49:19;9.50;99.90
14095;DHT22;18096;48.142;16.290;2024-03-02T10:51:46;9.50;99.90
14095;DHT22;18096;48.142;16.290;2024-03-02T10:54:12;9.70;99.90
14095;DHT22;18096;48.142;16.290;2024-03-02T10:56:41;9.70;99.90
14095;DHT22;18096;48.142;16.290;2024-03-02T10:59:35;9.70;99.90
14095;DHT22;18096;48.142;16.290;2024-03-02T11:02:03;9.70;99.90
14095;DHT22;18096;48.142;16.290;2024-03-02T11:04:30;11.40;99.90
14095;DHT22;18096;48.142;16.290;2024-03-02T11:07:03;9.80;99.90
14095;DHT22;18096;48.142;16.290;2024-03-02T11:09:30;9.80;99.90
14095;DHT22;18096;48.142;16.290;2024-03-02T11:12:15;9.90;99.90
14095;DHT22;18096;48.142;16.290;2024-03-02T11:14:44;9.90;99.90
14095;DHT22;18096;48.142;16.290;2024-03-02T11:17:11;10.10;99.90
14095;DHT22;18096;48.142;16.290;2024-03-02T11:19:38;10.20;99.90
14095;DHT22;18096;48.142;16.290;2024-03-02T11:22:06;10.30;99.90
14095;DHT22;18096;48.142;16.290;2024-03-02T11:24:32;10.40;99.90
14095;DHT22;18096;48.142;16.290;2024-03-02T11:27:02;10.40;99.90
14095;DHT22;18096;48.142;16.290;2024-03-02T11:32:16;10.40;99.90
14095;DHT22;18096;48.142;16.290;2024-03-02T11:34:44;10.40;99.90
14095;DHT22;18096;48.142;16.290;2024-03-02T11:37:11;10.40;99.90
14095;DHT22;18096;48.142;16.290;2024-03-02T11:39:40;10.40;99.90
14095;DHT22;18096;48.142;16.290;2024-03-02T11:42:09;10.40;99.90
14095;DHT22;18096;48.142;16.290;2024-03-02T11:44:36;10.30;99.90
14095;DHT22;18096;48.142;16.290;2024-03-02T11:47:06;10.30;99.90
14095;DHT22;18096;48.142;16.290;2024-03-02T11:49:42;10.30;99.90
14095;DHT22;18096;48.142;16.290;2024-03-02T11:52:10;10.30;99.90
14095;DHT22;18096;48.142;16.290;2024-03-02T11:54:39;10.40;99.90
14095;DHT22;18096;48.142;16.290;2024-03-02T11:57:16;10.40;99.90
14095;DHT22;18096;48.142;16.290;2024-03-02T11:59:42;10.40;99.90
14095;DHT22;18096;48.142;16.290;2024-03-02T12:02:17;10.40;99.90
14095;DHT22;18096;48.142;16.290;2024-03-02T12:04:44;10.50;99.90
14095;DHT22;18096;48.142;16.290;2024-03-02T12:07:11;10.50;99.90
14095;DHT22;18096;48.142;16.290;2024-03-02T12:09:38;10.60;99.90
14095;DHT22;18096;48.142;16.290;2024-03-02T12:12:08;10.60;99.90
14095;DHT22;18096;48.142;16.290;2024-03-02T12:14:38;10.60;99.90
14095;DHT22;18096;48.142;16.290;2024-03-02T12:17:05;10.60;99.90
14095;DHT22;18096;48.142;16.290;2024-03-02T12:19:32;10.60;99.90
14095;DHT22;18096;48.142;16.290;2024-03-02T12:22:01;10.60;99.90
14095;DHT22;18096;48.142;16.290;2024-03-02T12:24:29;10.70;99.90
14095;DHT22;18096;48.142;16.290;2024-03-02T12:26:55;10.90;99.90
14095;DHT22;18096;48.142;16.290;2024-03-02T12:29:21;11.10;99.90
14095;DHT22;18096;48.142;16.290;2024-03-02T12:31:51;11.30;99.90
14095;DHT22;18096;48.142;16.290;2024-03-02T12:34:21;11.30;99.90
14095;DHT22;18096;48.142;16.290;2024-03-02T12:36:47;11.40;99.90
14095;DHT22;18096;48.142;16.290;2024-03-02T12:39:19;11.30;99.90
14095;DHT22;18096;48.142;16.290;2024-03-02T12:41:46;11.40;99.90
14095;DHT22;18096;48.142;16.290;2024-03-02T12:44:12;11.50;99.90
14095;DHT22;18096;48.142;16.290;2024-03-02T12:46:38;11.60;99.90
14095;DHT22;18096;48.142;16.290;2024-03-02T12:49:11;11.60;99.90
14095;DHT22;18096;48.142;16.290;2024-03-02T12:51:41;11.70;99.90
14095;DHT22;18096;48.142;16.290;2024-03-02T12:54:08;11.80;99.90
14095;DHT22;18096;48.142;16.290;2024-03-02T12:56:35;12.20;99.90
14095;DHT22;18096;48.142;16.290;2024-03-02T12:59:01;12.60;99.90
14095;DHT22;18096;48.142;16.290;2024-03-02T13:01:27;13.10;99.90
14095;DHT22;18096;48.142;16.290;2024-03-02T13:03:54;13.70;99.90
14095;DHT22;18096;48.142;16.290;2024-03-02T13:06:21;14.30;99.90
14095;DHT22;18096;48.142;16.290;2024-03-02T13:08:47;14.60;99.90
14095;DHT22;18096;48.142;16.290;2024-03-02T13:11:13;14.80;99.90
14095;DHT22;18096;48.142;16.290;2024-03-02T13:13:39;15.10;99.90
14095;DHT22;18096;48.142;16.290;2024-03-02T13:16:12;15.30;99.90
14095;DHT22;18096;48.142;16.290;2024-03-02T13:18:41;15.10;99.90
14095;DHT22;18096;48.142;16.290;2024-03-02T13:21:07;14.90;99.90
14095;DHT22;18096;48.142;16.290;2024-03-02T13:23:33;14.50;99.90
14095;DHT22;18096;48.142;16.290;2024-03-02T13:25:59;14.20;99.90
14095;DHT22;18096;48.142;16.290;2024-03-02T13:28:25;13.80;99.90
14095;DHT22;18096;48.142;16.290;2024-03-02T13:30:51;13.50;99.90
14095;DHT22;18096;48.142;16.290;2024-03-02T13:33:17;13.20;99.90
14095;DHT22;18096;48.142;16.290;2024-03-02T13:35:51;13.00;99.90
14095;DHT22;18096;48.142;16.290;2024-03-02T13:38:18;12.80;99.90
14095;DHT22;18096;48.142;16.290;2024-03-02T13:40:44;12.60;99.90
14095;DHT22;18096;48.142;16.290;2024-03-02T13:43:10;12.50;99.90
14095;DHT22;18096;48.142;16.290;2024-03-02T13:45:37;12.40;99.90
14095;DHT22;18096;48.142;16.290;2024-03-02T13:48:03;12.40;99.90
14095;DHT22;18096;48.142;16.290;2024-03-02T13:50:29;12.40;99.90
14095;DHT22;18096;48.142;16.290;2024-03-02T13:52:55;12.30;99.90
14095;DHT22;18096;48.142;16.290;2024-03-02T13:55:22;12.30;99.90
14095;DHT22;18096;48.142;16.290;2024-03-02T13:57:48;12.30;99.90
14095;DHT22;18096;48.142;16.290;2024-03-02T14:00:18;12.20;99.90
14095;DHT22;18096;48.142;16.290;2024-03-02T14:02:45;12.10;99.90
14095;DHT22;18096;48.142;16.290;2024-03-02T14:05:11;12.10;99.90
14095;DHT22;18096;48.142;16.290;2024-03-02T14:07:38;12.00;99.90
14095;DHT22;18096;48.142;16.290;2024-03-02T14:10:04;12.00;99.90
14095;DHT22;18096;48.142;16.290;2024-03-02T14:12:30;13.30;99.90
14095;DHT22;18096;48.142;16.290;2024-03-02T14:14:56;12.00;99.90
14095;DHT22;18096;48.142;16.290;2024-03-02T14:17:24;11.90;99.90
14095;DHT22;18096;48.142;16.290;2024-03-02T14:19:50;11.90;99.90
14095;DHT22;18096;48.142;16.290;2024-03-02T14:22:16;11.90;99.90
14095;DHT22;18096;48.142;16.290;2024-03-02T14:24:43;11.90;99.90
14095;DHT22;18096;48.142;16.290;2024-03-02T14:27:09;12.00;99.90
14095;DHT22;18096;48.142;16.290;2024-03-02T14:29:34;12.10;99.90
14095;DHT22;18096;48.142;16.290;2024-03-02T14:32:03;12.10;99.90
14095;DHT22;18096;48.142;16.290;2024-03-02T14:34:29;12.00;99.90
14095;DHT22;18096;48.142;16.290;2024-03-02T14:36:55;11.90;99.90
14095;DHT22;18096;48.142;16.290;2024-03-02T14:39:21;11.80;99.90
14095;DHT22;18096;48.142;16.290;2024-03-02T14:41:46;11.80;99.90
14095;DHT22;18096;48.142;16.290;2024-03-02T14:44:12;11.70;99.90
14095;DHT22;18096;48.142;16.290;2024-03-02T14:46:38;11.70;99.90
14095;DHT22;18096;48.142;16.290;2024-03-02T14:49:04;11.60;99.90
14095;DHT22;18096;48.142;16.290;2024-03-02T14:51:30;11.60;99.90
14095;DHT22;18096;48.142;16.290;2024-03-02T14:53:56;11.50;99.90
14095;DHT22;18096;48.142;16.290;2024-03-02T14:56:21;11.50;99.90
14095;DHT22;18096;48.142;16.290;2024-03-02T14:58:47;11.40;99.90
14095;DHT22;18096;48.142;16.290;2024-03-02T15:01:13;11.40;99.90
14095;DHT22;18096;48.142;16.290;2024-03-02T15:03:40;11.40;99.90
14095;DHT22;18096;48.142;16.290;2024-03-02T15:06:05;11.40;99.90
14095;DHT22;18096;48.142;16.290;2024-03-02T15:08:33;11.30;99.90
14095;DHT22;18096;48.142;16.290;2024-03-02T15:10:58;11.30;99.90
14095;DHT22;18096;48.142;16.290;2024-03-02T15:13:26;11.30;99.90
14095;DHT22;18096;48.142;16.290;2024-03-02T15:15:52;11.20;99.90
14095;DHT22;18096;48.142;16.290;2024-03-02T15:18:18;11.20;99.90
14095;DHT22;18096;48.142;16.290;2024-03-02T15:20:44;11.20;99.90
14095;DHT22;18096;48.142;16.290;2024-03-02T15:23:09;11.10;99.90
14095;DHT22;18096;48.142;16.290;2024-03-02T15:25:35;11.10;99.90
14095;DHT22;18096;48.142;16.290;2024-03-02T15:28:01;11.10;99.90
14095;DHT22;18096;48.142;16.290;2024-03-02T15:30:26;11.20;99.90
14095;DHT22;18096;48.142;16.290;2024-03-02T15:32:52;11.10;99.90
14095;DHT22;18096;48.142;16.290;2024-03-02T15:35:17;10.80;99.90
14095;DHT22;18096;48.142;16.290;2024-03-02T15:37:43;11.00;99.90
14095;DHT22;18096;48.142;16.290;2024-03-02T15:40:09;11.00;99.90
14095;DHT22;18096;48.142;16.290;2024-03-02T15:42:35;11.00;99.90
14095;DHT22;18096;48.142;16.290;2024-03-02T15:45:01;11.00;99.90